createdAt,value
2018-04-30T00:02:34.481Z,56.54
2018-04-30T00:17:35.710Z,54.60
2018-04-30T00:32:34.814Z,54.78
2018-04-30T00:47:34.881Z,56.02
2018-04-30T01:02:34.615Z,59.86
2018-04-30T01:17:37.533Z,59.08
2018-04-30T01:32:34.906Z,59.09
2018-04-30T01:47:35.059Z,58.00
2018-04-30T02:02:37.082Z,56.33
2018-04-30T02:17:34.308Z,55.03
2018-04-30T02:32:34.480Z,55.16
2018-04-30T02:47:33.759Z,54.59
2018-04-30T03:02:34.158Z,52.53
2018-04-30T03:17:35.393Z,53.79
2018-04-30T03:47:36.808Z,55.49
2018-04-30T04:02:47.019Z,55.09
2018-04-30T04:17:37.862Z,53.71
2018-04-30T04:32:37.822Z,51.92
2018-04-30T04:47:36.985Z,49.11
2018-04-30T05:02:36.951Z,45.90
2018-04-30T05:17:36.068Z,42.25
2018-04-30T05:32:34.420Z,39.15
2018-04-30T05:47:35.352Z,37.14
2018-04-30T06:02:34.398Z,35.38
2018-04-30T06:17:36.773Z,34.83
2018-04-30T06:32:34.677Z,35.62
2018-04-30T07:02:35.161Z,36.23
2018-04-30T07:17:36.484Z,38.79
2018-04-30T07:32:37.216Z,38.83
2018-04-30T07:47:36.907Z,36.40
2018-04-30T08:17:34.298Z,32.04
2018-04-30T08:32:35.166Z,32.72
2018-04-30T08:47:37.378Z,32.37
2018-04-30T15:02:34.937Z,38.63
2018-04-30T15:17:34.499Z,38.80
2018-04-30T15:32:34.149Z,39.94
2018-04-30T15:47:37.277Z,40.26
2018-04-30T16:02:34.329Z,41.61
2018-04-30T16:17:35.096Z,42.13
2018-04-30T16:32:34.559Z,41.91
2018-04-30T16:47:34.486Z,42.24
2018-04-30T17:02:32.789Z,45.63
2018-04-30T17:17:36.601Z,46.85
2018-04-30T17:32:35.059Z,47.98
2018-04-30T17:47:37.099Z,48.91
2018-04-30T18:02:36.430Z,50.41
2018-04-30T18:17:34.679Z,50.87
2018-04-30T18:32:34.373Z,50.03
2018-04-30T18:47:34.673Z,50.97
2018-04-30T19:02:34.226Z,51.24
2018-04-30T19:17:34.711Z,51.78
2018-04-30T19:32:36.754Z,51.93
2018-04-30T19:47:35.177Z,51.36
2018-04-30T20:02:34.557Z,52.87
2018-04-30T20:17:35.914Z,55.14
2018-04-30T20:32:35.071Z,55.62
2018-04-30T20:47:35.063Z,56.19
2018-04-30T21:02:35.010Z,57.81
2018-04-30T21:17:35.153Z,55.96
2018-04-30T21:32:34.189Z,55.40
2018-04-30T21:47:34.724Z,54.83
2018-04-30T22:02:33.883Z,54.51
2018-04-30T22:17:34.974Z,54.36
2018-04-30T22:32:34.714Z,54.67
2018-04-30T22:47:34.438Z,54.46
2018-04-30T23:02:34.189Z,54.51
2018-04-30T23:17:34.869Z,54.42
2018-04-30T23:32:34.289Z,54.62
2018-04-30T23:47:34.742Z,54.38
